LYBE/BEG METAR and TAF weather

Enter ICAO airport designator
Station Type Date Time Source
LYBE METAR 2018/01/17 06:30 UTC NOAA

LYBE 170630Z 18012KT 9999 SCT045 10/03 Q0996 R12/CLRD// NOSIG


Station Type Date Time Source
LYBE Decoded METAR 2018/01/17 06:30 UTC NOAA

Beograd / Surcin, Serbia and Montenegro (LYBE) 44-49N 020-17E 99M
Jan 17, 2018 - 01:30 AM EST / 2018.01.17 0630 UTC
Wind: from the S (180 degrees) at 14 MPH (12 KT):0
Visibility: greater than 7 mile(s):0
Sky conditions: partly cloudy
Temperature: 50 F (10 C)
Dew Point: 37 F (3 C)
Relative Humidity: 61%
Pressure (altimeter): 29.41 in. Hg (0996 hPa)
ob: LYBE 170630Z 18012KT 9999 SCT045 10/03 Q0996 R12/CLRD// NOSIG
cycle: 6

Station Type Date Time Source
LYBE TAF 2018/01/17 06:21 UTC NOAA

TAF LYBE 170500Z 1706/1806 17009KT 9999 SCT035 TX08/1709Z TN00/1805Z
TEMPO 1707/1711 3000 SHRA SCT030TCU
BECMG 1709/1711 33014KT 5000 RA BKN008 BKN030
BECMG 1716/1718 7000 NSW SCT013 BKN025


Example: see airport list